Terminal Aerodrome Forecast
Issued by NWS

Current Version | Previous Version | Graphics & Text | Print | Product List | Glossary On
Versions: 1 2 3 4 5 6 7 8 9 10 11 12 13 14 15 16 17 18 19 20 21 22 23 24 25 26 27 28 29 30 31
000
FTUS41 KILN 282331
TAFLUK
TAF
KLUK 282331Z 2900/2924 24009KT P6SM OVC050
     FM290100 24009KT P6SM VCTS BKN045CB
      TEMPO 2901/2903 32020G30KT 3SM -TSRA OVC035CB
     FM290300 24008KT P6SM BKN040
     FM290600 25005KT P6SM SCT250
     FM291300 21008KT P6SM SCT250
     FM291700 24011G18KT P6SM BKN250=

USA.gov is the U.S. government's official web portal to all federal, state and local government web resources and services.